Terminal Aerodrome Forecast
Issued by NWS

Home | Current Version | Previous Version | Text Only | Print | Product List | Glossary On
Versions: 1 2 3 4 5 6 7 8 9 10 11 12 13 14
000
FTUS42 TJSJ 241149
TAFJMZ
TAF
TJMZ 241149Z 2412/2512 06010KT P6SM VCSH SCT025 SCT060
     FM241600 29010G20KT 5SM TSRA SCT025CB BKN040 OVC060
     FM242200 18007KT P6SM VCSH SCT025 BKN070
      AMD NOT SKED=

USA.gov is the U.S. government's official web portal to all federal, state and local government web resources and services.